Time;durP1;ratioP1;P1;durP2;ratioP2;P2;SDS_P1;SDS_P2;PMS_P1;PMS_P2;Temp;Humidity;BMP_temperature;BMP_pressure;BME280_temperature;BME280_humidity;BME280_pressure;Samples;Min_cycle;Max_cycle;Signal;HPM_P1;HPM_P2
2022/12/27 00:00:22;;;;;;;4.20;1.00;;;;;;;3.81;100.00;96637.38;5085410;28;24483;-77
2022/12/27 00:02:48;;;;;;;2.70;1.10;;;;;;;3.74;100.00;96648.63;5081620;28;24441;-76
2022/12/27 00:05:17;;;;;;;3.55;1.00;;;;;;;3.74;100.00;96650.34;5083802;28;24469;-75
2022/12/27 00:07:44;;;;;;;3.28;1.00;;;;;;;3.66;100.00;96658.19;5087168;28;24976;-77
2022/12/27 00:10:11;;;;;;;2.53;0.95;;;;;;;3.64;100.00;96654.84;5080417;28;24466;-77
2022/12/27 00:12:38;;;;;;;4.25;1.08;;;;;;;3.63;100.00;96666.81;5087218;28;24445;-77
2022/12/27 00:15:05;;;;;;;3.73;1.37;;;;;;;3.53;100.00;96673.00;5084827;28;24464;-76
2022/12/27 00:17:32;;;;;;;3.03;1.13;;;;;;;3.41;100.00;96683.47;5077000;28;24430;-77
2022/12/27 00:19:58;;;;;;;4.15;1.23;;;;;;;3.38;100.00;96681.00;5076392;28;24442;-76
2022/12/27 00:22:26;;;;;;;2.65;1.00;;;;;;;3.36;100.00;96685.28;5075832;28;24891;-77
2022/12/27 00:24:53;;;;;;;3.47;1.08;;;;;;;3.39;100.00;96683.50;5082040;28;24462;-77
2022/12/27 00:27:19;;;;;;;2.33;1.00;;;;;;;3.43;100.00;96680.91;5088476;28;24827;-76
2022/12/27 00:29:46;;;;;;;4.10;1.50;;;;;;;3.52;100.00;96685.81;5065740;28;24446;-77
2022/12/27 00:32:12;;;;;;;3.88;1.60;;;;;;;3.53;100.00;96684.97;5069612;28;24442;-78
2022/12/27 00:34:39;;;;;;;4.53;1.45;;;;;;;3.52;100.00;96688.38;5078508;28;24439;-78
2022/12/27 00:37:05;;;;;;;2.10;0.98;;;;;;;3.42;100.00;96697.16;5078707;28;25006;-77
2022/12/27 00:39:33;;;;;;;2.58;1.00;;;;;;;3.42;100.00;96695.44;5077652;28;24434;-77
2022/12/27 00:41:59;;;;;;;4.30;1.30;;;;;;;3.30;100.00;96700.75;5073379;28;24431;-77
2022/12/27 00:44:26;;;;;;;2.10;0.90;;;;;;;3.24;100.00;96694.06;5079702;28;24529;-78
2022/12/27 00:46:52;;;;;;;3.30;2.22;;;;;;;3.24;100.00;96701.75;5081917;28;24434;-77
2022/12/27 00:49:19;;;;;;;4.30;1.10;;;;;;;3.12;100.00;96709.66;5073888;28;24442;-77
2022/12/27 00:51:45;;;;;;;3.00;1.08;;;;;;;3.04;100.00;96708.94;5078185;28;24441;-76
2022/12/27 00:54:12;;;;;;;2.28;1.20;;;;;;;3.03;100.00;96709.81;5081087;28;24431;-77
2022/12/27 00:56:39;;;;;;;2.15;1.10;;;;;;;3.01;100.00;96720.09;5076006;28;24437;-78
2022/12/27 00:59:06;;;;;;;2.30;0.80;;;;;;;2.88;100.00;96721.16;5077540;28;24797;-77
2022/12/27 01:01:35;;;;;;;2.03;0.80;;;;;;;2.82;100.00;96723.84;5067578;28;24446;-77
2022/12/27 01:04:01;;;;;;;3.15;0.93;;;;;;;2.73;100.00;96721.44;5083715;28;24431;-77
2022/12/27 01:06:31;;;;;;;2.78;0.80;;;;;;;2.83;100.00;96722.97;5087636;28;24449;-77
2022/12/27 01:08:58;;;;;;;3.38;0.82;;;;;;;2.70;100.00;96726.59;5085993;28;24445;-78
2022/12/27 01:11:27;;;;;;;3.13;1.00;;;;;;;2.60;100.00;96724.19;5071291;28;24431;-77
2022/12/27 01:13:56;;;;;;;4.38;1.38;;;;;;;2.49;100.00;96735.47;5076928;28;24513;-77
2022/12/27 01:16:24;;;;;;;5.63;0.80;;;;;;;2.48;100.00;96723.53;5075779;28;24435;-77
2022/12/27 01:18:50;;;;;;;1.63;0.70;;;;;;;2.45;100.00;96729.56;5085319;28;25072;-77
2022/12/27 01:21:19;;;;;;;2.55;0.70;;;;;;;2.46;100.00;96727.84;5073520;28;24496;-77
2022/12/27 01:23:46;;;;;;;2.22;0.70;;;;;;;2.49;100.00;96740.59;5086924;28;24509;-77
2022/12/27 01:26:15;;;;;;;3.70;0.97;;;;;;;2.36;100.00;96750.13;5081815;28;24458;-77
2022/12/27 01:28:41;;;;;;;1.95;0.70;;;;;;;2.50;100.00;96737.16;5082343;28;24468;-77
2022/12/27 01:31:11;;;;;;;2.22;0.70;;;;;;;2.70;100.00;96755.56;5077642;28;24438;-77
2022/12/27 01:33:38;;;;;;;1.88;0.80;;;;;;;2.69;100.00;96750.47;5080028;28;24445;-77
2022/12/27 01:36:10;;;;;;;1.58;0.75;;;;;;;2.70;100.00;96760.69;5081954;28;24431;-76
2022/12/27 01:38:36;;;;;;;1.65;0.65;;;;;;;2.73;100.00;96757.25;5089551;28;24438;-75
2022/12/27 01:42:50;;;;;;;2.33;1.27;;;;;;;2.78;100.00;96763.13;5079124;28;24438;-76
2022/12/27 01:43:48;;;;;;;2.70;0.93;;;;;;;2.71;100.00;96767.50;5076118;28;24522;-76
2022/12/27 01:46:17;;;;;;;1.10;0.70;;;;;;;2.75;100.00;96774.25;5081525;28;25414;-76
2022/12/27 01:48:44;;;;;;;2.55;0.70;;;;;;;2.77;100.00;96779.34;5079372;28;24484;-76
2022/12/27 01:51:12;;;;;;;2.88;0.75;;;;;;;2.61;100.00;96783.84;5076970;28;24797;-77
2022/12/27 01:53:42;;;;;;;1.40;0.50;;;;;;;2.64;100.00;96787.22;5085533;28;24454;-75
2022/12/27 01:56:13;;;;;;;1.02;0.50;;;;;;;2.81;100.00;96781.81;5084852;28;24429;-75
2022/12/27 01:58:42;;;;;;;1.88;0.70;;;;;;;2.85;100.00;96780.06;5077966;28;25014;-77
2022/12/27 02:01:12;;;;;;;1.50;0.75;;;;;;;2.75;100.00;96778.53;5089023;28;24433;-76
2022/12/27 02:03:45;;;;;;;2.13;0.70;;;;;;;2.41;100.00;96795.22;5074800;28;24815;-75
2022/12/27 02:06:14;;;;;;;1.33;0.63;;;;;;;2.48;100.00;96787.44;5072268;28;24454;-76
2022/12/27 02:08:47;;;;;;;1.77;0.80;;;;;;;2.41;100.00;96784.13;5091027;28;24450;-76
2022/12/27 02:11:15;;;;;;;2.80;0.70;;;;;;;2.20;100.00;96790.41;5080592;28;24528;-76
2022/12/27 02:13:44;;;;;;;2.22;1.00;;;;;;;2.22;100.00;96790.38;5079830;28;24443;-76
2022/12/27 02:16:13;;;;;;;2.35;0.90;;;;;;;2.14;100.00;96791.31;5074488;28;24457;-76
2022/12/27 02:18:41;;;;;;;2.00;0.70;;;;;;;2.14;100.00;96795.59;5088066;28;24465;-76
2022/12/27 02:21:39;;;;;;;2.65;0.80;;;;;;;2.00;100.00;96793.22;5073723;28;24430;-76
2022/12/27 02:24:35;;;;;;;2.35;0.70;;;;;;;2.04;100.00;96794.88;5082119;28;24434;-75
2022/12/27 02:27:06;;;;;;;2.30;0.80;;;;;;;1.83;100.00;96807.91;5080032;28;25062;-75
2022/12/27 02:29:51;;;;;;;4.13;0.85;;;;;;;1.89;100.00;96808.69;5082652;28;25002;-76
2022/12/27 02:32:23;;;;;;;0.85;0.55;;;;;;;2.02;100.00;96814.50;5073201;28;24956;-75
2022/12/27 02:34:59;;;;;;;1.77;0.70;;;;;;;2.07;100.00;96814.41;5081549;28;24975;-75
2022/12/27 02:37:29;;;;;;;2.17;0.90;;;;;;;1.83;100.00;96821.53;5076643;28;24435;-75
2022/12/27 02:53:02;;;;;;;2.38;0.88;;;;;;;1.97;100.00;96812.88;5083757;28;24431;-75
2022/12/27 02:54:15;;;;;;;2.75;1.10;;;;;;;1.43;100.00;96808.34;5075911;28;24590;-75
2022/12/27 02:57:10;;;;;;;2.75;0.90;;;;;;;1.30;100.00;96814.44;5079319;28;24446;-76
2022/12/27 03:05:42;;;;;;;2.00;0.88;;;;;;;1.39;100.00;96809.25;5086811;28;24886;-75
2022/12/27 03:08:15;;;;;;;3.20;0.82;;;;;;;1.41;100.00;96808.38;5080560;28;24425;-75
2022/12/27 03:16:30;;;;;;;2.30;0.90;;;;;;;1.21;100.00;96807.72;5085560;28;24754;-75
2022/12/27 03:19:03;;;;;;;4.17;0.90;;;;;;;1.21;100.00;96813.66;5079944;28;24508;-75
2022/12/27 03:27:16;;;;;;;2.97;0.90;;;;;;;1.25;100.00;96828.94;5073173;28;24403;-75
2022/12/27 03:35:22;;;;;;;1.55;0.63;;;;;;;1.34;100.00;96831.44;5078639;28;25010;-75
2022/12/27 03:38:02;;;;;;;1.88;0.90;;;;;;;1.35;100.00;96830.56;5078732;28;24439;-75
2022/12/27 03:40:39;;;;;;;1.55;0.70;;;;;;;1.30;100.00;96840.81;5080609;28;24431;-75
2022/12/27 03:43:11;;;;;;;3.60;0.83;;;;;;;1.23;100.00;96835.78;5081864;28;24516;-75
2022/12/27 03:49:01;;;;;;;3.15;0.80;;;;;;;1.27;100.00;96830.63;5086505;28;24799;-75
2022/12/27 03:51:36;;;;;;;1.80;0.75;;;;;;;1.14;100.00;96827.34;5068350;28;24446;-75
2022/12/27 03:54:09;;;;;;;2.08;0.82;;;;;;;1.22;100.00;96827.25;5079587;28;24998;-75
2022/12/27 03:56:36;;;;;;;2.50;0.88;;;;;;;1.13;100.00;96825.66;5081256;28;24462;-75
2022/12/27 03:59:04;;;;;;;3.78;0.98;;;;;;;1.00;100.00;96830.84;5079598;28;24979;-75
2022/12/27 04:01:31;;;;;;;2.25;0.80;;;;;;;0.94;100.00;96837.72;5078356;28;24999;-75
2022/12/27 04:03:57;;;;;;;3.20;1.20;;;;;;;1.14;100.00;96834.16;5083826;28;24449;-76
2022/12/27 04:06:24;;;;;;;2.67;1.07;;;;;;;1.11;100.00;96836.72;5082386;28;24486;-75
2022/12/27 04:36:12;;;;;;;1.77;0.70;;;;;;;1.19;100.00;96829.88;5084798;28;24489;-76
2022/12/27 04:38:39;;;;;;;3.13;0.90;;;;;;;1.22;100.00;96824.72;5078582;28;24434;-75
2022/12/27 04:54:58;;;;;;;2.70;0.98;;;;;;;1.26;100.00;96822.97;5075772;28;24449;-75
2022/12/27 04:57:27;;;;;;;3.22;1.27;;;;;;;1.21;100.00;96834.06;5083074;28;24437;-75
2022/12/27 05:02:38;;;;;;;2.38;0.90;;;;;;;1.31;100.00;96839.13;5086438;28;24405;-75
2022/12/27 05:05:05;;;;;;;5.75;1.17;;;;;;;1.39;100.00;96839.88;5083071;28;24441;-75
2022/12/27 05:15:45;;;;;;;1.48;0.85;;;;;;;1.27;100.00;96847.66;5078860;28;24535;-76
2022/12/27 05:18:11;;;;;;;1.92;0.93;;;;;;;1.28;100.00;96846.78;5089517;28;24441;-76
2022/12/27 05:20:38;;;;;;;3.17;1.00;;;;;;;1.37;100.00;96841.59;5081851;28;24430;-75
2022/12/27 05:25:48;;;;;;;2.92;1.33;;;;;;;1.35;100.00;96856.09;5080004;28;24904;-75
2022/12/27 05:28:16;;;;;;;2.80;1.10;;;;;;;1.31;100.00;96868.03;5081121;28;24478;-75
2022/12/27 05:30:44;;;;;;;2.20;1.00;;;;;;;1.31;100.00;96862.94;5081193;28;24445;-75
2022/12/27 05:33:11;;;;;;;1.80;0.90;;;;;;;1.32;100.00;96863.75;5085176;28;24785;-75
2022/12/27 05:35:37;;;;;;;1.50;0.90;;;;;;;1.27;100.00;96865.53;5086977;28;24434;-75
2022/12/27 05:38:04;;;;;;;7.88;1.35;;;;;;;1.23;100.00;96866.41;5082746;28;24438;-75
2022/12/27 05:40:31;;;;;;;2.58;1.08;;;;;;;1.16;100.00;96873.25;5087829;28;24430;-75
2022/12/27 05:42:59;;;;;;;1.90;0.73;;;;;;;1.16;100.00;96860.50;5077789;28;25020;-76
2022/12/27 05:45:27;;;;;;;2.83;1.20;;;;;;;1.15;100.00;96872.44;5088719;28;24494;-75
2022/12/27 05:47:53;;;;;;;2.30;1.30;;;;;;;1.11;100.00;96882.66;5089125;28;24442;-75
2022/12/27 05:50:20;;;;;;;5.85;1.42;;;;;;;1.06;100.00;96880.13;5080831;28;24513;-75
2022/12/27 05:52:47;;;;;;;5.82;1.10;;;;;;;1.10;100.00;96886.91;5083873;28;24461;-75
2022/12/27 05:55:13;;;;;;;3.83;1.10;;;;;;;1.11;100.00;96888.63;5084296;28;24439;-75
2022/12/27 05:57:40;;;;;;;2.73;0.90;;;;;;;1.09;100.00;96880.13;5084365;28;24433;-75
2022/12/27 06:00:08;;;;;;;2.92;0.95;;;;;;;1.05;100.00;96881.00;5082058;28;24439;-75
2022/12/27 06:02:38;;;;;;;2.10;1.10;;;;;;;1.05;100.00;96895.47;5088019;28;24999;-76
2022/12/27 06:05:05;;;;;;;8.88;1.60;;;;;;;1.15;100.00;96891.97;5086607;28;24438;-76
2022/12/27 06:07:31;;;;;;;4.57;1.15;;;;;;;1.08;100.00;96883.53;5089106;28;24805;-75
2022/12/27 06:09:58;;;;;;;1.73;1.15;;;;;;;1.04;100.00;96894.63;5084005;28;24434;-75
2022/12/27 06:12:24;;;;;;;3.47;1.50;;;;;;;1.09;100.00;96903.06;5079468;28;24430;-75
2022/12/27 06:14:51;;;;;;;3.38;1.20;;;;;;;1.09;100.00;96897.13;5083934;28;24445;-76
2022/12/27 06:17:17;;;;;;;3.10;1.13;;;;;;;1.02;100.00;96898.88;5083645;28;24438;-75
2022/12/27 06:19:45;;;;;;;4.05;1.38;;;;;;;0.91;100.00;96893.84;5083597;28;25002;-75
2022/12/27 06:22:11;;;;;;;2.58;1.30;;;;;;;0.93;100.00;96901.50;5084631;28;24457;-75
2022/12/27 06:24:38;;;;;;;1.97;1.37;;;;;;;0.85;100.00;96896.44;5083811;28;24535;-75
2022/12/27 06:27:04;;;;;;;3.90;1.52;;;;;;;0.68;100.00;96901.66;5074557;28;24461;-76
2022/12/27 06:29:31;;;;;;;2.95;1.30;;;;;;;0.57;100.00;96895.78;5080258;28;24582;-73
2022/12/27 06:31:57;;;;;;;8.95;1.30;;;;;;;0.56;100.00;96896.63;5067237;28;24454;-76
2022/12/27 06:34:24;;;;;;;3.50;1.48;;;;;;;0.44;100.00;96896.69;5070305;28;24466;-75
2022/12/27 06:36:51;;;;;;;2.75;1.23;;;;;;;0.47;100.00;96902.59;5091850;28;24437;-74
2022/12/27 06:39:18;;;;;;;5.03;1.10;;;;;;;0.43;100.00;96905.19;5085895;28;24450;-75
2022/12/27 06:41:45;;;;;;;3.50;1.40;;;;;;;0.35;100.00;96902.69;5084378;28;24442;-74
2022/12/27 06:44:12;;;;;;;2.30;1.40;;;;;;;0.24;100.00;96905.25;5079063;28;24441;-75
2022/12/27 06:46:38;;;;;;;1.88;1.08;;;;;;;0.38;100.00;96906.91;5088185;28;24821;-75
2022/12/27 06:49:05;;;;;;;2.58;1.13;;;;;;;0.36;100.00;96909.47;5086787;28;24430;-74
2022/12/27 06:51:33;;;;;;;3.33;1.48;;;;;;;0.24;100.00;96912.91;5072639;28;24423;-74
2022/12/27 06:54:01;;;;;;;2.60;1.05;;;;;;;0.21;100.00;96914.63;5079282;28;24442;-74
2022/12/27 06:56:27;;;;;;;2.78;1.20;;;;;;;0.23;100.00;96913.78;5080855;28;24450;-74
2022/12/27 06:58:54;;;;;;;3.15;1.20;;;;;;;0.31;100.00;96910.34;5082468;28;24434;-74
2022/12/27 07:01:22;;;;;;;5.22;1.42;;;;;;;0.23;100.00;96913.78;5082544;28;24430;-75
2022/12/27 07:03:50;;;;;;;4.05;1.23;;;;;;;0.12;100.00;96924.84;5086553;28;24969;-75
2022/12/27 07:06:17;;;;;;;2.28;1.02;;;;;;;0.03;100.00;96924.88;5079018;28;24455;-74
2022/12/27 07:08:44;;;;;;;2.60;1.00;;;;;;;-0.02;100.00;96928.28;5078057;28;24529;-74
2022/12/27 07:11:13;;;;;;;1.98;1.17;;;;;;;-0.10;100.00;96930.00;5079292;28;24793;-75
2022/12/27 07:13:42;;;;;;;2.67;1.10;;;;;;;-0.20;100.00;96930.88;5082288;28;24441;-76
2022/12/27 07:16:10;;;;;;;2.50;0.90;;;;;;;-0.30;100.00;96927.50;5078488;28;24430;-75
2022/12/27 07:18:38;;;;;;;2.30;0.82;;;;;;;-0.29;100.00;96929.19;5088014;28;24469;-76
2022/12/27 07:21:05;;;;;;;2.42;0.93;;;;;;;-0.37;100.00;96942.78;5076886;28;24984;-75
2022/12/27 07:23:32;;;;;;;1.85;1.23;;;;;;;-0.40;100.00;96935.16;5087600;28;24474;-76
2022/12/27 07:26:02;;;;;;;4.07;2.38;;;;;;;-0.48;100.00;96940.25;5074276;28;24458;-75
2022/12/27 07:28:30;;;;;;;2.78;1.40;;;;;;;-0.51;100.00;96938.56;5071763;28;24488;-76
2022/12/27 07:30:56;;;;;;;3.20;1.13;;;;;;;-0.51;100.00;96940.25;5072041;28;24801;-76
2022/12/27 07:33:23;;;;;;;2.92;1.20;;;;;;;-0.49;100.00;96938.53;5075873;28;24441;-76
2022/12/27 07:35:49;;;;;;;5.15;2.40;;;;;;;-0.52;100.00;96944.50;5071943;28;24429;-75
2022/12/27 07:38:16;;;;;;;2.42;1.27;;;;;;;-0.53;100.00;96949.56;5069792;28;24896;-76
2022/12/27 07:40:42;;;;;;;2.20;1.30;;;;;;;-0.46;100.00;96948.72;5070222;28;24891;-76
2022/12/27 07:43:08;;;;;;;2.58;1.17;;;;;;;-0.43;100.00;96948.72;5067655;28;24446;-76
2022/12/27 07:45:36;;;;;;;3.55;1.17;;;;;;;-0.38;100.00;96948.72;5072488;28;24444;-76
2022/12/27 07:48:03;;;;;;;3.35;1.20;;;;;;;-0.23;100.00;96952.94;5072223;28;24449;-76
2022/12/27 07:50:29;;;;;;;2.67;1.37;;;;;;;-0.23;100.00;96948.69;5078619;28;24434;-76
2022/12/27 07:52:56;;;;;;;3.17;1.55;;;;;;;-0.26;100.00;96959.75;5081951;28;24437;-76
2022/12/27 07:55:22;;;;;;;3.80;1.90;;;;;;;-0.20;100.00;96955.50;5070507;28;24450;-76
2022/12/27 07:57:49;;;;;;;11.85;2.10;;;;;;;-0.29;100.00;96954.66;5077944;28;25009;-76
2022/12/27 08:00:16;;;;;;;5.82;1.85;;;;;;;-0.23;100.00;96950.41;5069824;28;24445;-76
2022/12/27 08:02:45;;;;;;;4.18;2.03;;;;;;;-0.17;100.00;96948.69;5067527;28;24461;-76
2022/12/27 08:05:12;;;;;;;2.28;1.20;;;;;;;-0.08;100.00;96952.91;5068167;28;24439;-75
2022/12/27 08:07:40;;;;;;;2.60;1.25;;;;;;;-0.07;100.00;96952.09;5069398;28;24450;-77
2022/12/27 08:10:09;;;;;;;2.47;1.30;;;;;;;-0.10;100.00;96952.09;5067844;28;24473;-76
2022/12/27 08:12:36;;;;;;;1.70;1.20;;;;;;;-0.04;100.00;96955.47;5074433;28;24606;-76
2022/12/27 08:15:03;;;;;;;4.55;1.10;;;;;;;-0.04;100.00;96944.41;5069296;28;24445;-76
2022/12/27 08:17:29;;;;;;;3.35;1.30;;;;;;;-0.05;100.00;96938.47;5069023;28;24438;-76
2022/12/27 08:19:57;;;;;;;2.15;1.70;;;;;;;0.01;100.00;96936.78;5078153;28;24430;-76
2022/12/27 08:22:24;;;;;;;2.10;1.30;;;;;;;0.05;100.00;96934.22;5075753;28;24430;-76
2022/12/27 08:24:50;;;;;;;2.00;1.20;;;;;;;0.10;100.00;96940.13;5078698;28;24471;-75
2022/12/27 08:27:20;;;;;;;6.27;1.50;;;;;;;0.19;100.00;96952.00;5066831;28;24458;-74
2022/12/27 08:29:47;;;;;;;3.03;1.17;;;;;;;0.28;100.00;96949.41;5080035;28;24507;-76
2022/12/27 08:32:13;;;;;;;3.22;0.98;;;;;;;0.55;100.00;96947.59;5081214;28;24433;-76
2022/12/27 08:34:40;;;;;;;2.00;1.08;;;;;;;0.83;100.00;96946.63;5067121;28;24851;-76
2022/12/27 08:37:08;;;;;;;4.00;1.33;;;;;;;1.09;100.00;96953.25;5066847;28;24432;-77
2022/12/27 08:39:34;;;;;;;2.47;1.40;;;;;;;1.36;100.00;96958.16;5083868;28;24464;-76
2022/12/27 08:42:01;;;;;;;2.47;1.40;;;;;;;1.48;100.00;96952.09;5080689;28;24435;-76
2022/12/27 08:44:28;;;;;;;3.00;1.27;;;;;;;1.64;100.00;96952.84;5076510;28;24443;-76
2022/12/27 08:46:54;;;;;;;2.63;1.33;;;;;;;1.74;100.00;96962.09;5074213;28;24450;-76
2022/12/27 08:49:21;;;;;;;2.45;1.00;;;;;;;1.83;100.00;96964.56;5081273;28;24434;-75
2022/12/27 08:51:48;;;;;;;5.45;1.50;;;;;;;1.74;100.00;96966.34;5087835;28;24430;-76
2022/12/27 08:54:16;;;;;;;3.38;1.27;;;;;;;1.99;100.00;96960.16;5082154;28;24462;-76
2022/12/27 08:56:42;;;;;;;3.23;1.63;;;;;;;2.12;100.00;96960.91;5081661;28;24434;-76
2022/12/27 08:59:08;;;;;;;3.60;1.30;;;;;;;2.07;100.00;96960.06;5083784;28;24490;-76
2022/12/27 09:01:35;;;;;;;2.33;1.42;;;;;;;2.39;100.00;96960.56;5086280;28;24441;-77
2022/12/27 09:04:01;;;;;;;7.03;3.22;;;;;;;2.61;100.00;96963.72;5078525;28;24508;-75
2022/12/27 09:06:28;;;;;;;3.88;1.98;;;;;;;2.90;100.00;96965.91;5072826;28;24985;-76
2022/12/27 09:08:55;;;;;;;6.40;2.83;;;;;;;2.86;100.00;96963.44;5082691;28;24437;-76
2022/12/27 09:11:25;;;;;;;4.40;2.50;;;;;;;3.08;100.00;96969.94;5073976;28;24434;-77
2022/12/27 09:13:51;;;;;;;3.22;1.70;;;;;;;3.37;100.00;96973.75;5081707;28;24449;-77
2022/12/27 09:16:20;;;;;;;3.22;1.63;;;;;;;3.51;100.00;96969.28;5066611;28;24442;-76
2022/12/27 09:18:48;;;;;;;3.03;1.67;;;;;;;3.62;100.00;96980.19;5066266;28;24438;-77
2022/12/27 09:21:16;;;;;;;6.47;1.73;;;;;;;3.74;100.00;96978.31;5082750;28;24791;-76
2022/12/27 09:23:44;;;;;;;2.72;1.55;;;;;;;3.77;100.00;96980.81;5081494;28;24446;-77
2022/12/27 09:26:12;;;;;;;5.57;1.42;;;;;;;3.79;100.00;96984.22;5076577;28;24442;-74
2022/12/27 09:28:40;;;;;;;3.65;1.52;;;;;;;3.82;100.00;96982.47;5070862;28;24445;-76
2022/12/27 09:31:09;;;;;;;3.57;1.80;;;;;;;3.91;100.00;96970.34;5085149;28;24453;-75
2022/12/27 09:33:36;;;;;;;3.22;1.55;;;;;;;3.79;100.00;96962.00;5076959;28;24446;-76
2022/12/27 09:36:04;;;;;;;3.63;1.48;;;;;;;3.81;100.00;96967.09;5066471;28;24427;-76
2022/12/27 09:38:31;;;;;;;5.45;1.98;;;;;;;3.80;100.00;96963.69;5068891;28;24443;-76
2022/12/27 09:41:00;;;;;;;3.08;1.30;;;;;;;3.94;100.00;96971.16;5070337;28;24449;-75
2022/12/27 09:43:39;;;;;;;5.70;1.50;;;;;;;4.13;100.00;96976.78;5068005;28;24441;-76
2022/12/27 09:46:12;;;;;;;4.40;1.60;;;;;;;4.27;100.00;96973.97;5070487;28;24515;-75
2022/12/27 09:48:40;;;;;;;3.40;1.60;;;;;;;4.40;100.00;96975.41;5074079;28;24983;-76
2022/12/27 09:51:13;;;;;;;3.15;1.60;;;;;;;4.48;100.00;96977.84;5073656;28;24824;-76
2022/12/27 09:53:45;;;;;;;4.80;1.50;;;;;;;4.54;100.00;96970.88;5087365;28;24991;-76
2022/12/27 09:56:23;;;;;;;2.45;1.27;;;;;;;4.43;100.00;96970.22;5085034;28;24816;-76
2022/12/27 09:58:51;;;;;;;2.75;1.35;;;;;;;4.41;100.00;96971.97;5081118;28;24434;-75
2022/12/27 10:01:28;;;;;;;3.55;1.30;;;;;;;4.28;100.00;96963.69;5075854;28;24423;-76
2022/12/27 10:03:55;;;;;;;3.03;1.55;;;;;;;4.32;100.00;96965.31;5080033;28;24448;-76
2022/12/27 10:06:47;;;;;;;3.75;1.45;;;;;;;4.21;100.00;96964.66;5082397;28;24438;-76
2022/12/27 10:09:28;;;;;;;3.78;1.98;;;;;;;4.02;100.00;96960.75;5072850;28;24435;-75
2022/12/27 10:12:01;;;;;;;5.20;1.80;;;;;;;4.06;100.00;96965.78;5076248;28;24992;-77
2022/12/27 10:14:46;;;;;;;5.70;2.17;;;;;;;3.94;100.00;96966.03;5075434;28;24464;-76
2022/12/27 10:17:28;;;;;;;3.80;1.87;;;;;;;4.31;100.00;96966.19;5077163;28;24458;-75
2022/12/27 10:20:04;;;;;;;5.93;1.80;;;;;;;4.21;100.00;96961.25;5066284;28;24434;-73
2022/12/27 10:22:35;;;;;;;2.85;1.73;;;;;;;4.44;100.00;96959.09;5082413;28;24819;-74
2022/12/27 10:25:04;;;;;;;4.20;1.98;;;;;;;4.35;100.00;96949.88;5080757;28;25003;-74
2022/12/27 10:27:31;;;;;;;6.30;2.03;;;;;;;4.49;100.00;96946.19;5079660;28;24450;-75
2022/12/27 10:29:59;;;;;;;4.63;1.70;;;;;;;4.42;100.00;96942.06;5081822;28;24445;-74
2022/12/27 10:32:27;;;;;;;4.55;1.63;;;;;;;4.43;100.00;96939.44;5076609;28;24442;-75
2022/12/27 10:34:56;;;;;;;3.78;1.60;;;;;;;4.68;100.00;96939.81;5081157;28;24446;-74
2022/12/27 10:37:23;;;;;;;3.33;1.73;;;;;;;4.61;100.00;96940.81;5079327;28;24883;-74
2022/12/27 10:39:49;;;;;;;4.15;1.40;;;;;;;4.90;100.00;96945.34;5078487;28;24442;-75
2022/12/27 10:42:32;;;;;;;3.40;1.40;;;;;;;5.02;100.00;96946.78;5076395;28;24442;-75
2022/12/27 10:45:26;;;;;;;4.53;1.80;;;;;;;4.99;100.00;96947.69;5078479;28;24511;-74
2022/12/27 10:47:57;;;;;;;4.28;1.40;;;;;;;4.99;100.00;96944.28;5070193;28;24528;-76
2022/12/27 10:50:27;;;;;;;4.65;1.98;;;;;;;4.98;100.00;96952.88;5074207;28;24449;-75
2022/12/27 10:52:54;;;;;;;3.53;1.63;;;;;;;4.88;100.00;96941.09;5077069;28;24485;-75
2022/12/27 10:55:33;;;;;;;6.38;1.48;;;;;;;4.82;100.00;96939.50;5080965;28;24438;-75
2022/12/27 10:58:21;;;;;;;3.90;1.70;;;;;;;4.84;100.00;96937.75;5077542;28;24522;-75
2022/12/27 11:00:58;;;;;;;2.85;1.13;;;;;;;4.60;100.00;96937.41;5068080;28;24507;-75
2022/12/27 11:03:27;;;;;;;3.35;1.20;;;;;;;4.65;100.00;96936.47;5082756;28;24811;-75
2022/12/27 11:06:01;;;;;;;8.50;1.52;;;;;;;4.59;100.00;96937.41;5079691;28;24435;-75
2022/12/27 11:08:27;;;;;;;4.72;0.85;;;;;;;4.57;100.00;96934.91;5079574;28;24455;-75
2022/12/27 11:11:12;;;;;;;4.60;1.57;;;;;;;4.63;100.00;96933.91;5077628;28;24437;-72
2022/12/27 11:13:39;;;;;;;5.80;1.63;;;;;;;4.68;100.00;96936.41;5080761;28;24964;-72
2022/12/27 11:16:06;;;;;;;3.08;1.40;;;;;;;4.71;100.00;96926.03;5070847;28;24820;-74
2022/12/27 11:18:37;;;;;;;7.03;1.58;;;;;;;4.69;100.00;96932.94;5078107;28;24497;-75
2022/12/27 11:21:03;;;;;;;5.28;1.33;;;;;;;4.67;100.00;96934.69;5081802;28;24991;-75
2022/12/27 11:23:36;;;;;;;4.07;1.30;;;;;;;4.64;100.00;96937.34;5080148;28;24446;-74
2022/12/27 11:26:06;;;;;;;2.88;1.30;;;;;;;4.59;100.00;96932.28;5068453;28;25022;-75
2022/12/27 11:28:37;;;;;;;2.88;1.27;;;;;;;4.48;100.00;96931.66;5076858;28;24699;-73
2022/12/27 11:31:06;;;;;;;2.75;1.30;;;;;;;4.51;100.00;96932.44;5067662;28;24489;-72
2022/12/27 11:33:38;;;;;;;2.65;1.15;;;;;;;4.49;100.00;96933.38;5068720;28;24439;-73
2022/12/27 11:36:07;;;;;;;7.72;1.60;;;;;;;4.55;100.00;96933.22;5070490;28;24493;-73
2022/12/27 11:38:35;;;;;;;3.33;1.45;;;;;;;4.62;100.00;96932.22;5077161;28;24453;-73
2022/12/27 11:41:04;;;;;;;4.68;1.80;;;;;;;4.70;100.00;96937.19;5079152;28;24436;-73
2022/12/27 11:43:35;;;;;;;3.67;1.50;;;;;;;4.77;100.00;96928.50;5075103;28;24446;-74
2022/12/27 11:46:05;;;;;;;5.75;1.27;;;;;;;4.76;100.00;96931.94;5077431;28;24548;-73
2022/12/27 11:48:37;;;;;;;2.58;1.40;;;;;;;4.81;100.00;96930.94;5080233;28;24568;-73
2022/12/27 11:51:26;;;;;;;2.83;1.30;;;;;;;4.90;100.00;96934.22;5075383;28;24434;-75
2022/12/27 11:54:05;;;;;;;5.57;1.30;;;;;;;4.84;100.00;96927.50;5068832;28;24540;-74
2022/12/27 11:56:35;;;;;;;2.85;1.10;;;;;;;4.87;100.00;96931.72;5072459;28;24544;-74
2022/12/27 11:59:25;;;;;;;5.03;1.45;;;;;;;4.80;100.00;96931.84;5079658;28;24433;-75
2022/12/27 12:02:10;;;;;;;3.58;1.30;;;;;;;4.88;100.00;96931.66;5070326;28;24433;-77
2022/12/27 12:04:59;;;;;;;10.55;1.60;;;;;;;4.87;100.00;96930.00;5078207;28;24453;-76
2022/12/27 12:07:43;;;;;;;3.40;1.50;;;;;;;4.90;100.00;96921.38;5079063;28;24451;-77
2022/12/27 12:10:21;;;;;;;2.80;1.15;;;;;;;5.02;100.00;96919.38;5074876;28;25031;-77
2022/12/27 12:13:08;;;;;;;4.55;1.42;;;;;;;4.92;100.00;96917.88;5076361;28;24831;-77
2022/12/27 12:15:56;;;;;;;7.90;1.87;;;;;;;4.92;100.00;96919.63;5080262;28;24423;-77
2022/12/27 12:18:36;;;;;;;3.33;1.30;;;;;;;5.09;100.00;96927.78;5073183;28;24454;-77
2022/12/27 12:21:23;;;;;;;5.40;1.17;;;;;;;5.38;100.00;96926.25;5067749;28;24446;-75
2022/12/27 12:24:17;;;;;;;4.13;1.23;;;;;;;5.44;100.00;96929.53;5076509;28;24999;-74
2022/12/27 12:26:53;;;;;;;5.90;1.23;;;;;;;5.38;100.00;96933.97;5072630;28;24430;-74
2022/12/27 12:29:40;;;;;;;2.80;1.38;;;;;;;5.31;100.00;96923.00;5077908;28;24454;-75
2022/12/27 12:32:32;;;;;;;4.18;1.20;;;;;;;5.36;100.00;96918.59;5080236;28;24438;-75
2022/12/27 12:35:24;;;;;;;2.58;1.00;;;;;;;5.42;100.00;96917.63;5079072;28;24442;-75
2022/12/27 12:38:11;;;;;;;6.35;1.17;;;;;;;5.50;100.00;96918.28;5059290;28;24435;-75
2022/12/27 12:41:04;;;;;;;2.78;1.02;;;;;;;5.31;100.00;96920.44;5078794;28;24847;-75
2022/12/27 12:43:55;;;;;;;4.28;1.20;;;;;;;5.34;100.00;96925.50;5074747;28;24445;-75
2022/12/27 12:46:30;;;;;;;3.50;1.17;;;;;;;5.31;100.00;96923.00;5080845;28;24453;-72
2022/12/27 12:49:19;;;;;;;11.77;1.30;;;;;;;5.35;100.00;96922.06;5073049;28;24462;-72
2022/12/27 12:52:09;;;;;;;7.57;1.65;;;;;;;5.35;100.00;96922.06;5059224;28;25020;-75
2022/12/27 12:54:57;;;;;;;4.60;1.27;;;;;;;5.29;100.00;96919.63;5071618;28;24450;-73
2022/12/27 12:57:38;;;;;;;4.47;1.00;;;;;;;5.23;100.00;96919.78;5076357;28;24438;-72
2022/12/27 13:00:26;;;;;;;3.90;0.90;;;;;;;5.27;100.00;96918.84;5085551;28;24797;-73
2022/12/27 13:03:14;;;;;;;3.22;1.10;;;;;;;5.25;100.00;96913.72;5071548;28;25081;-73
2022/12/27 13:05:47;;;;;;;2.53;1.23;;;;;;;5.30;100.00;96911.03;5092583;28;24457;-72
2022/12/27 13:08:23;;;;;;;3.20;1.10;;;;;;;5.27;100.00;96911.13;5085249;28;24442;-72
2022/12/27 13:11:17;;;;;;;4.82;1.40;;;;;;;5.31;100.00;96907.59;5084001;28;24434;-73
2022/12/27 13:13:55;;;;;;;3.38;1.30;;;;;;;5.38;100.00;96908.28;5080007;28;24438;-74
2022/12/27 13:16:33;;;;;;;2.45;1.02;;;;;;;5.43;100.00;96906.44;5080524;28;24429;-74
2022/12/27 13:19:14;;;;;;;3.42;0.98;;;;;;;5.53;100.00;96908.75;5081419;28;24436;-74
2022/12/27 13:21:53;;;;;;;4.35;0.98;;;;;;;5.52;100.00;96907.06;5072324;28;24433;-73